Andrews, NC

9:25 AM EST on December 27, 2014 (GMT -0500)
McGhee Tyson | Change Station
CLOSE
Current Station
Airport
Location: Knoxville,
Elevation: 981 ft
Nearby Weather Stations

Elev 981 ft 35.82 °N, 83.99 °W | Updated 32 minutes ago

Mostly Cloudy
Mostly Cloudy
40 °F
Feels Like 40 °F
N
0
Wind Variable Wind from North

Today
High -- | Low -- °F
--% Chance of Precip.
Yesterday
High -- | Low -- °F
Precip. -- in
7:42 AM 5:30 PM
Waxing Crescent, 37% visible
Pressure 30.33 in
Visibility 10.0 miles
Clouds Mostly Cloudy 6000 ft
Mostly Cloudy 12000 ft
Overcast 25000 ft
Dew Point 37 °F
Humidity 89%
Rainfall 0.00 in
Snow Depth Not available.
UV 0 out of 12
Pollen .10 out of 12
Air Quality Not available.
Flu Activity Not available.
METAR KTYS 271353Z 00000KT 10SM BKN060 BKN120 OVC250 04/03 A3031 RMK AO2 SLP269 T00440028

More Conditions Fewer Conditions

Pressure 30.33 in
Visibility 10.0 miles
Clouds Mostly Cloudy 6000 ft
Mostly Cloudy 12000 ft
Overcast 25000 ft
Dew Point 37 °F
Humidity 89%
Rainfall 0.00 in
Snow Depth Not available.
UV 0 out of 12
Pollen .10 out of 12
Air Quality Not available.
Flu Activity Not available.
METAR KTYS 271353Z 00000KT 10SM BKN060 BKN120 OVC250 04/03 A3031 RMK AO2 SLP269 T00440028

More Conditions Fewer Conditions

10-Day Weather Forecast

Almanac

Astronomy

Dec. 27, 2014 Rise Set
Actual Time
Civil Twilight
Nautical Twilight
Astronomical Twilight
Moon
Length of Visible Light
Length of Day
Tomorrow will be .
, % of the Moon is Illuminated

Today's Extremes

State Highs State Lows

Community

WunderPhotos

Upload Photos

1,780,916 photos uploaded!

WunderBlogs® & News

Nearby

Air Quality

  Air Quality AQ Index Pollutant
Not available.

Snow Depth

Station Depth Elevation

Earthquake Activity

City Distance Mag. Time & Date
Minimum magnitude displayed is 2.5.

Coastal Water Temperatures

Place Temperature

Nearby Weather Stations